Time;durP1;ratioP1;P1;durP2;ratioP2;P2;SDS_P1;SDS_P2;PMS_P1;PMS_P2;Temp;Humidity;BMP_temperature;BMP_pressure;BME280_temperature;BME280_humidity;BME280_pressure;Samples;Min_cycle;Max_cycle;Signal;HPM_P1;HPM_P2
2022/10/21 00:00:20;;;;;;;;;;;;;;;11.77;69.25;100684.88;5044503;28;19908;-31
2022/10/21 00:02:45;;;;;;;;;;;;;;;11.75;69.09;100681.34;5030076;28;19917;-30
2022/10/21 00:05:10;;;;;;;;;;;;;;;11.74;68.90;100674.34;5015799;28;20004;-31
2022/10/21 00:07:36;;;;;;;;;;;;;;;11.74;69.42;100671.69;5049369;28;20003;-31
2022/10/21 00:10:01;;;;;;;;;;;;;;;11.73;69.54;100664.63;5059621;28;19913;-31
2022/10/21 00:12:27;;;;;;;;;;;;;;;11.73;69.20;100665.53;5060368;28;20373;-31
2022/10/21 00:14:52;;;;;;;;;;;;;;;11.72;69.39;100660.25;5053174;28;20374;-31
2022/10/21 00:17:18;;;;;;;;;;;;;;;11.72;69.67;100668.19;5055861;28;19920;-31
2022/10/21 00:19:43;;;;;;;;;;;;;;;11.71;69.66;100654.13;5058423;28;20266;-30
2022/10/21 00:22:08;;;;;;;;;;;;;;;11.71;69.60;100643.56;5059473;28;20387;-31
2022/10/21 00:24:33;;;;;;;;;;;;;;;11.70;69.41;100635.66;5048621;28;19944;-31
2022/10/21 00:26:59;;;;;;;;;;;;;;;11.68;69.48;100625.94;5045685;28;19920;-31
2022/10/21 00:29:24;;;;;;;;;;;;;;;11.70;69.69;100630.34;5052160;28;19913;-31
2022/10/21 00:31:51;;;;;;;;;;;;;;;11.68;69.76;100612.75;5057241;28;19912;-31
2022/10/21 00:34:17;;;;;;;;;;;;;;;11.67;69.97;100618.94;5048475;28;19920;-31
2022/10/21 00:36:42;;;;;;;;;;;;;;;11.67;69.74;100629.50;5059408;28;20281;-31
2022/10/21 00:39:07;;;;;;;;;;;;;;;11.67;69.52;100632.13;5058878;28;20274;-31
2022/10/21 00:41:32;;;;;;;;;;;;;;;11.66;69.66;100614.53;5054490;28;20370;-31
2022/10/21 00:43:59;;;;;;;;;;;;;;;11.66;69.39;100609.25;5046184;28;20390;-31
2022/10/21 00:46:33;;;;;;;;;;;;;;;11.65;69.54;100598.72;5059777;28;20500;-31
2022/10/21 00:48:58;;;;;;;;;;;;;;;11.65;69.36;100599.59;5055334;28;20427;-31
2022/10/21 00:51:24;;;;;;;;;;;;;;;11.66;69.82;100592.53;5058170;28;19917;-30
2022/10/21 00:53:49;;;;;;;;;;;;;;;11.64;69.70;100592.53;5049854;28;20285;-31
2022/10/21 00:56:24;;;;;;;;;;;;;;;11.64;69.71;100589.91;5054302;28;19939;-31
2022/10/21 00:58:49;;;;;;;;;;;;;;;11.64;69.49;100589.91;5032840;28;19956;-31
2022/10/21 01:01:15;;;;;;;;;;;;;;;11.65;69.39;100589.03;5056943;28;19945;-31
2022/10/21 01:03:40;;;;;;;;;;;;;;;11.65;69.70;100586.38;5045773;28;19920;-31
2022/10/21 01:06:07;;;;;;;;;;;;;;;11.63;69.62;100561.75;5054942;28;19912;-31
2022/10/21 01:08:32;;;;;;;;;;;;;;;11.64;69.93;100557.34;5041829;28;19916;-31
2022/10/21 01:10:57;;;;;;;;;;;;;;;11.64;69.92;100560.00;5012277;28;19913;-31
2022/10/21 01:13:26;;;;;;;;;;;;;;;11.62;69.82;100561.78;5058283;28;19936;-31
2022/10/21 01:15:54;;;;;;;;;;;;;;;11.62;69.68;100544.16;5051261;28;19916;-31
2022/10/21 01:18:29;;;;;;;;;;;;;;;11.61;69.72;100537.13;5035523;28;19913;-31
2022/10/21 01:20:59;;;;;;;;;;;;;;;11.62;69.73;100553.84;5046398;28;20410;-31
2022/10/21 01:23:43;;;;;;;;;;;;;;;11.61;69.43;100552.97;5032602;28;19920;-31
2022/10/21 01:26:14;;;;;;;;;;;;;;;11.61;69.57;100552.97;5051381;28;19967;-31
2022/10/21 01:28:48;;;;;;;;;;;;;;;11.60;69.54;100545.94;5055722;28;19920;-31
2022/10/21 01:31:16;;;;;;;;;;;;;;;11.59;69.72;100546.84;5042436;28;19912;-31
2022/10/21 01:33:43;;;;;;;;;;;;;;;11.59;69.43;100535.41;5049120;28;19964;-31
2022/10/21 01:36:08;;;;;;;;;;;;;;;11.58;69.24;100545.13;5034112;28;19923;-31
2022/10/21 01:38:34;;;;;;;;;;;;;;;11.60;69.35;100534.53;5065132;28;20003;-31
2022/10/21 01:41:04;;;;;;;;;;;;;;;11.58;69.61;100531.91;5041410;28;19912;-31
2022/10/21 01:43:36;;;;;;;;;;;;;;;11.58;69.63;100520.47;5031487;28;20366;-31
2022/10/21 01:46:03;;;;;;;;;;;;;;;11.59;69.33;100528.34;5049872;28;20288;-31
2022/10/21 01:48:30;;;;;;;;;;;;;;;11.60;69.65;100513.38;5033134;28;19935;-31
2022/10/21 01:50:56;;;;;;;;;;;;;;;11.58;69.80;100505.50;5028231;28;20011;-31
2022/10/21 01:53:23;;;;;;;;;;;;;;;11.58;69.77;100516.06;5038735;28;19921;-31
2022/10/21 01:55:48;;;;;;;;;;;;;;;11.58;69.73;100509.88;5036888;28;19925;-31
2022/10/21 01:58:14;;;;;;;;;;;;;;;11.57;69.78;100516.06;5035172;28;19912;-31
2022/10/21 02:00:40;;;;;;;;;;;;;;;11.57;69.38;100521.34;5030521;28;19923;-34
2022/10/21 02:03:06;;;;;;;;;;;;;;;11.55;69.37;100516.94;5045181;28;19913;-30
2022/10/21 02:05:31;;;;;;;;;;;;;;;11.55;69.39;100513.47;5034856;28;20366;-31
2022/10/21 02:07:57;;;;;;;;;;;;;;;11.56;69.52;100517.84;5037517;28;19912;-31
2022/10/21 02:10:22;;;;;;;;;;;;;;;11.56;69.53;100512.56;5036938;28;19921;-31
2022/10/21 02:12:48;;;;;;;;;;;;;;;11.57;69.64;100521.34;5037151;28;20007;-31
2022/10/21 02:15:13;;;;;;;;;;;;;;;11.53;69.61;100513.47;5056411;28;20293;-31
2022/10/21 02:17:39;;;;;;;;;;;;;;;11.53;69.38;100508.19;5036094;28;19913;-31
2022/10/21 02:20:06;;;;;;;;;;;;;;;11.54;69.52;100511.72;5037266;28;19920;-31
2022/10/21 02:22:31;;;;;;;;;;;;;;;11.55;69.55;100510.81;5045489;28;19920;-31
2022/10/21 02:25:00;;;;;;;;;;;;;;;11.55;69.41;100498.47;5032724;28;19917;-31
2022/10/21 02:27:26;;;;;;;;;;;;;;;11.53;69.41;100492.34;5056621;28;20002;-31
2022/10/21 02:29:51;;;;;;;;;;;;;;;11.53;69.35;100479.16;5057066;28;20038;-31
2022/10/21 02:32:23;;;;;;;;;;;;;;;11.53;69.44;100476.50;5052319;28;19912;-31
2022/10/21 02:34:58;;;;;;;;;;;;;;;11.54;69.66;100487.94;5063055;28;19965;-31
2022/10/21 02:37:42;;;;;;;;;;;;;;;11.53;69.21;100483.53;5052824;28;19913;-31
2022/10/21 02:40:08;;;;;;;;;;;;;;;11.51;69.60;100488.84;5056307;28;19939;-31
2022/10/21 02:42:34;;;;;;;;;;;;;;;11.52;69.59;100495.91;5035939;28;19932;-31
2022/10/21 02:45:00;;;;;;;;;;;;;;;11.51;69.34;100503.84;5034478;28;19913;-31
2022/10/21 02:47:25;;;;;;;;;;;;;;;11.51;69.16;100509.13;5032323;28;20335;-31
2022/10/21 02:49:50;;;;;;;;;;;;;;;11.50;69.32;100499.44;5051172;28;19912;-31
2022/10/21 02:52:16;;;;;;;;;;;;;;;11.50;69.45;100502.94;5049198;28;19919;-31
2022/10/21 02:54:41;;;;;;;;;;;;;;;11.50;69.47;100504.72;5050095;28;20266;-31
2022/10/21 02:57:06;;;;;;;;;;;;;;;11.50;69.22;100496.78;5044853;28;19955;-31
2022/10/21 02:59:31;;;;;;;;;;;;;;;11.49;69.38;100489.78;5046602;28;19970;-31
2022/10/21 03:01:56;;;;;;;;;;;;;;;11.48;69.52;100496.84;5055539;28;19923;-31
2022/10/21 03:04:22;;;;;;;;;;;;;;;11.48;69.18;100482.75;5053315;28;19924;-31
2022/10/21 03:06:47;;;;;;;;;;;;;;;11.49;69.32;100479.22;5052913;28;19923;-31
2022/10/21 03:09:12;;;;;;;;;;;;;;;11.48;69.36;100490.69;5043954;28;19917;-31
2022/10/21 03:11:37;;;;;;;;;;;;;;;11.46;69.58;100489.81;5029023;28;19916;-31
2022/10/21 03:14:02;;;;;;;;;;;;;;;11.47;69.33;100486.31;5053982;28;19920;-31
2022/10/21 03:16:28;;;;;;;;;;;;;;;11.45;69.57;100498.63;5055169;28;19916;-31
2022/10/21 03:18:53;;;;;;;;;;;;;;;11.45;69.49;100493.34;5044725;28;19913;-31
2022/10/21 03:21:18;;;;;;;;;;;;;;;11.43;69.56;100485.47;5050202;28;19917;-31
2022/10/21 03:23:43;;;;;;;;;;;;;;;11.42;69.30;100479.31;5055196;28;19941;-31
2022/10/21 03:26:09;;;;;;;;;;;;;;;11.41;69.31;100472.28;5052673;28;19912;-31
2022/10/21 03:28:34;;;;;;;;;;;;;;;11.41;69.26;100471.44;5048185;28;19913;-31
2022/10/21 03:30:59;;;;;;;;;;;;;;;11.41;69.25;100482.00;5046097;28;19912;-31
2022/10/21 03:33:24;;;;;;;;;;;;;;;11.40;69.62;100480.22;5056639;28;19912;-31
2022/10/21 03:35:49;;;;;;;;;;;;;;;11.38;69.28;100482.91;5052735;28;19917;-31
2022/10/21 03:38:15;;;;;;;;;;;;;;;11.38;69.56;100475.00;5049762;28;19913;-31
2022/10/21 03:40:40;;;;;;;;;;;;;;;11.38;69.50;100474.09;5047933;28;19920;-31
2022/10/21 03:43:05;;;;;;;;;;;;;;;11.36;69.54;100458.28;5062221;28;19947;-31
2022/10/21 03:45:30;;;;;;;;;;;;;;;11.36;69.24;100467.97;5035059;28;19913;-31
2022/10/21 03:47:56;;;;;;;;;;;;;;;11.35;69.24;100455.66;5033187;28;20007;-31
2022/10/21 03:50:21;;;;;;;;;;;;;;;11.34;69.48;100454.78;5048907;28;19920;-31
2022/10/21 03:52:46;;;;;;;;;;;;;;;11.33;69.16;100458.31;5060887;28;19916;-31
2022/10/21 03:55:12;;;;;;;;;;;;;;;11.33;69.30;100458.31;5061964;28;19923;-31
2022/10/21 03:57:37;;;;;;;;;;;;;;;11.33;69.60;100458.31;5050668;28;19939;-31
2022/10/21 04:00:02;;;;;;;;;;;;;;;11.32;69.46;100451.31;5061235;28;19913;-31
2022/10/21 04:02:28;;;;;;;;;;;;;;;11.32;69.58;100439.88;5051043;28;19928;-32
2022/10/21 04:04:53;;;;;;;;;;;;;;;11.31;69.45;100436.38;5056788;28;19916;-31
2022/10/21 04:07:18;;;;;;;;;;;;;;;11.31;69.49;100428.47;5035522;28;20362;-31
2022/10/21 04:09:43;;;;;;;;;;;;;;;11.31;69.57;100425.81;5052777;28;19966;-30
2022/10/21 04:12:09;;;;;;;;;;;;;;;11.32;69.54;100429.31;5034891;28;19982;-31
2022/10/21 04:14:34;;;;;;;;;;;;;;;11.31;69.55;100427.56;5051243;28;19913;-30
2022/10/21 04:16:59;;;;;;;;;;;;;;;11.29;69.30;100432.88;5049155;28;19916;-31
2022/10/21 04:19:24;;;;;;;;;;;;;;;11.28;69.45;100424.06;5066477;28;19912;-31
2022/10/21 04:21:49;;;;;;;;;;;;;;;11.30;69.47;100426.69;5048600;28;19913;-31
2022/10/21 04:24:15;;;;;;;;;;;;;;;11.29;69.33;100435.50;5046205;28;19913;-31
2022/10/21 04:26:41;;;;;;;;;;;;;;;11.29;70.01;100435.50;5047015;28;19920;-31
2022/10/21 04:29:06;;;;;;;;;;;;;;;11.27;69.73;100437.31;5057859;28;19940;-31
2022/10/21 04:31:31;;;;;;;;;;;;;;;11.27;69.74;100432.03;5048477;28;19945;-31
2022/10/21 04:33:57;;;;;;;;;;;;;;;11.27;69.68;100410.91;5047167;28;19921;-31
2022/10/21 04:36:22;;;;;;;;;;;;;;;11.26;69.32;100409.16;5047275;28;19925;-31
2022/10/21 04:38:47;;;;;;;;;;;;;;;11.26;69.53;100401.22;5034305;28;20433;-31
2022/10/21 04:41:12;;;;;;;;;;;;;;;11.26;69.52;100402.13;5043839;28;20007;-31
2022/10/21 04:43:38;;;;;;;;;;;;;;;11.25;69.45;100408.31;5057384;28;20000;-31
2022/10/21 04:46:03;;;;;;;;;;;;;;;11.25;69.46;100404.78;5060633;28;20284;-30
2022/10/21 04:48:28;;;;;;;;;;;;;;;11.25;69.79;100402.13;5027331;28;20404;-31
2022/10/21 04:50:54;;;;;;;;;;;;;;;11.26;69.64;100393.31;5048261;28;20123;-31
2022/10/21 04:53:19;;;;;;;;;;;;;;;11.26;69.86;100382.75;5048098;28;19912;-31
2022/10/21 04:55:45;;;;;;;;;;;;;;;11.25;69.66;100383.66;5052350;28;20358;-31
2022/10/21 04:58:10;;;;;;;;;;;;;;;11.24;69.78;100380.13;5046997;28;20042;-31
2022/10/21 05:00:35;;;;;;;;;;;;;;;11.26;69.61;100380.13;5050919;28;19917;-31
2022/10/21 05:03:00;;;;;;;;;;;;;;;11.24;69.63;100364.28;5030091;28;19913;-30
2022/10/21 05:05:25;;;;;;;;;;;;;;;11.25;69.85;100359.91;5047768;28;20396;-31
2022/10/21 05:07:51;;;;;;;;;;;;;;;11.25;70.12;100362.53;5058099;28;20361;-31
2022/10/21 05:10:16;;;;;;;;;;;;;;;11.24;70.04;100363.44;5051489;28;20379;-31
2022/10/21 05:12:41;;;;;;;;;;;;;;;11.25;70.13;100373.97;5050390;28;19915;-31
2022/10/21 05:15:07;;;;;;;;;;;;;;;11.25;69.79;100366.06;5050434;28;19974;-31
2022/10/21 05:17:32;;;;;;;;;;;;;;;11.25;70.03;100367.81;5051038;28;19916;-31
2022/10/21 05:19:57;;;;;;;;;;;;;;;11.25;69.96;100360.78;5060409;28;19908;-31
2022/10/21 05:22:22;;;;;;;;;;;;;;;11.25;69.93;100360.78;5053929;28;19923;-31
2022/10/21 05:24:48;;;;;;;;;;;;;;;11.25;70.01;100360.78;5051841;28;19919;-31
2022/10/21 05:27:13;;;;;;;;;;;;;;;11.26;69.71;100357.25;5050502;28;19913;-30
2022/10/21 05:29:38;;;;;;;;;;;;;;;11.26;69.87;100361.63;5062919;28;19919;-30
2022/10/21 05:32:03;;;;;;;;;;;;;;;11.26;69.44;100357.25;5071799;28;19952;-31
2022/10/21 05:34:29;;;;;;;;;;;;;;;11.26;69.85;100351.06;5058303;28;19912;-31
2022/10/21 05:36:54;;;;;;;;;;;;;;;11.27;69.78;100352.84;5063900;28;19961;-31
2022/10/21 05:39:19;;;;;;;;;;;;;;;11.26;69.40;100359.00;5059761;28;19934;-31
2022/10/21 05:41:44;;;;;;;;;;;;;;;11.26;69.55;100361.63;5051432;28;19995;-31
2022/10/21 05:44:09;;;;;;;;;;;;;;;11.26;69.89;100366.91;5051275;28;19913;-31
2022/10/21 05:46:35;;;;;;;;;;;;;;;11.26;69.64;100345.78;5051123;28;19913;-31
2022/10/21 05:49:00;;;;;;;;;;;;;;;11.26;69.50;100364.28;5051817;28;19904;-31
2022/10/21 05:51:25;;;;;;;;;;;;;;;11.26;69.58;100362.53;5050276;28;20050;-31
2022/10/21 05:53:54;;;;;;;;;;;;;;;11.24;69.47;100352.88;5060199;28;19912;-31
2022/10/21 05:56:19;;;;;;;;;;;;;;;11.25;69.80;100357.25;5050841;28;19916;-31
2022/10/21 05:58:44;;;;;;;;;;;;;;;11.25;69.82;100359.91;5052397;28;19915;-31
2022/10/21 06:01:10;;;;;;;;;;;;;;;11.25;69.48;100359.91;5050960;28;19909;-31
2022/10/21 06:03:35;;;;;;;;;;;;;;;11.26;69.60;100359.00;5051679;28;20373;-30
2022/10/21 06:06:01;;;;;;;;;;;;;;;11.26;69.54;100353.72;5032580;28;19913;-31
2022/10/21 06:08:27;;;;;;;;;;;;;;;11.26;69.63;100345.78;5050925;28;19912;-31
2022/10/21 06:10:59;;;;;;;;;;;;;;;11.26;69.95;100359.88;5071311;28;20098;-30
2022/10/21 06:13:24;;;;;;;;;;;;;;;11.26;69.94;100372.19;5071460;28;20003;-30
2022/10/21 06:15:50;;;;;;;;;;;;;;;11.27;69.74;100379.25;5057927;28;20007;-31
2022/10/21 06:18:15;;;;;;;;;;;;;;;11.27;70.05;100358.13;5033068;28;19959;-31
2022/10/21 06:20:40;;;;;;;;;;;;;;;11.28;69.89;100365.13;5052112;28;19920;-31
2022/10/21 06:23:05;;;;;;;;;;;;;;;11.27;69.75;100358.97;5053305;28;19919;-31
2022/10/21 06:25:31;;;;;;;;;;;;;;;11.28;70.09;100367.78;5037137;28;19908;-31
2022/10/21 06:27:56;;;;;;;;;;;;;;;11.28;70.03;100355.44;5057037;28;20419;-31
2022/10/21 06:30:22;;;;;;;;;;;;;;;11.29;69.70;100357.19;5056768;28;19912;-30
2022/10/21 06:32:48;;;;;;;;;;;;;;;11.29;69.74;100370.41;5065173;28;19920;-31
2022/10/21 06:35:13;;;;;;;;;;;;;;;11.31;69.64;100375.66;5033456;28;20078;-30
2022/10/21 06:37:39;;;;;;;;;;;;;;;11.32;69.74;100371.22;5063068;28;19908;-31
2022/10/21 06:40:04;;;;;;;;;;;;;;;11.33;69.99;100370.34;5072084;28;19909;-31
2022/10/21 06:42:29;;;;;;;;;;;;;;;11.34;69.70;100365.00;5049570;28;20316;-31
2022/10/21 06:44:55;;;;;;;;;;;;;;;11.35;69.91;100366.78;5051434;28;19912;-31
2022/10/21 06:47:20;;;;;;;;;;;;;;;11.35;69.64;100369.41;5050244;28;19967;-31
2022/10/21 06:49:45;;;;;;;;;;;;;;;11.36;69.92;100379.06;5047191;28;19920;-31
2022/10/21 06:52:10;;;;;;;;;;;;;;;11.37;69.76;100372.03;5045438;28;19931;-30
2022/10/21 06:54:36;;;;;;;;;;;;;;;11.36;70.02;100368.50;5055015;28;19915;-31
2022/10/21 06:57:02;;;;;;;;;;;;;;;11.37;69.85;100385.25;5054624;28;20293;-31
2022/10/21 06:59:27;;;;;;;;;;;;;;;11.38;69.64;100385.22;5055000;28;19908;-31
2022/10/21 07:01:52;;;;;;;;;;;;;;;11.38;69.95;100379.94;5054554;28;19913;-31
2022/10/21 07:04:18;;;;;;;;;;;;;;;11.40;69.55;100380.75;5053629;28;21245;-31
2022/10/21 07:06:45;;;;;;;;;;;;;;;11.39;69.53;100373.75;5061057;28;20485;-31
2022/10/21 07:09:10;;;;;;;;;;;;;;;11.40;69.77;100375.47;5042756;28;19919;-31
2022/10/21 07:11:35;;;;;;;;;;;;;;;11.42;69.57;100371.06;5057683;28;19909;-31
2022/10/21 07:14:00;;;;;;;;;;;;;;;11.42;69.44;100370.19;5056108;28;20364;-30
2022/10/21 07:16:30;;;;;;;;;;;;;;;11.45;69.60;100377.16;5056600;28;20164;-31
2022/10/21 07:18:55;;;;;;;;;;;;;;;11.45;69.71;100382.44;5056108;28;19913;-31
2022/10/21 07:21:22;;;;;;;;;;;;;;;11.45;69.81;100377.16;5055632;28;19926;-30
2022/10/21 07:23:48;;;;;;;;;;;;;;;11.47;69.62;100385.94;5068861;28;19912;-31
2022/10/21 07:26:13;;;;;;;;;;;;;;;11.50;69.95;100388.50;5074892;28;19916;-30
2022/10/21 07:28:40;;;;;;;;;;;;;;;11.52;69.68;100384.97;5075577;28;19908;-31
2022/10/21 07:31:06;;;;;;;;;;;;;;;11.54;69.78;100392.88;5055746;28;19897;-31
2022/10/21 07:33:32;;;;;;;;;;;;;;;11.54;69.97;100383.16;5057166;28;20023;-31
2022/10/21 07:36:08;;;;;;;;;;;;;;;11.57;69.99;100392.78;5062003;28;20034;-30
2022/10/21 07:38:33;;;;;;;;;;;;;;;11.58;69.93;100388.38;5043240;28;20003;-31
2022/10/21 07:40:58;;;;;;;;;;;;;;;11.60;69.75;100392.75;5057096;28;19999;-31
2022/10/21 07:43:24;;;;;;;;;;;;;;;11.64;70.13;100389.13;5053821;28;19954;-31
2022/10/21 07:45:49;;;;;;;;;;;;;;;11.67;70.14;100391.72;5052551;28;19912;-30
2022/10/21 07:48:14;;;;;;;;;;;;;;;11.69;70.30;100386.41;5035856;28;19908;-31
2022/10/21 07:50:40;;;;;;;;;;;;;;;11.73;70.18;100366.09;5057836;28;19964;-31
2022/10/21 07:53:05;;;;;;;;;;;;;;;11.76;70.02;100361.63;5065855;28;19966;-31
2022/10/21 07:55:30;;;;;;;;;;;;;;;11.80;70.33;100375.66;5059705;28;20293;-31
2022/10/21 07:57:56;;;;;;;;;;;;;;;11.84;70.31;100374.69;5053529;28;20007;-31
2022/10/21 08:00:22;;;;;;;;;;;;;;;11.87;70.62;100371.97;5053355;28;19913;-31
2022/10/21 08:02:51;;;;;;;;;;;;;;;11.90;70.62;100361.38;5055778;28;19916;-31
2022/10/21 08:05:16;;;;;;;;;;;;;;;11.94;70.45;100357.75;5057851;28;19924;-31
2022/10/21 08:07:41;;;;;;;;;;;;;;;11.99;70.48;100344.47;5064944;28;19912;-31
2022/10/21 08:10:07;;;;;;;;;;;;;;;12.03;70.64;100337.31;5070428;28;19919;-31
2022/10/21 08:12:32;;;;;;;;;;;;;;;12.06;70.84;100332.00;5061581;28;19919;-31
2022/10/21 08:14:58;;;;;;;;;;;;;;;12.10;70.75;100328.41;5052971;28;20004;-30
2022/10/21 08:17:23;;;;;;;;;;;;;;;12.16;70.71;100327.41;5056082;28;20385;-31
2022/10/21 08:19:48;;;;;;;;;;;;;;;12.21;71.22;100320.25;5063523;28;19908;-31
2022/10/21 08:22:13;;;;;;;;;;;;;;;12.24;70.74;100316.66;5050293;28;19939;-31
2022/10/21 08:24:39;;;;;;;;;;;;;;;12.28;70.72;100315.69;5053783;22;20316;-31
2022/10/21 08:27:04;;;;;;;;;;;;;;;12.32;70.78;100309.44;5034705;28;20285;-31
2022/10/21 08:29:30;;;;;;;;;;;;;;;12.35;70.64;100309.38;5033416;28;19913;-31
2022/10/21 08:31:55;;;;;;;;;;;;;;;12.38;70.33;100317.25;5032580;28;19909;-31
2022/10/21 08:34:20;;;;;;;;;;;;;;;12.42;70.26;100325.97;5040709;28;19912;-31
2022/10/21 08:36:46;;;;;;;;;;;;;;;12.45;70.06;100344.41;5050927;28;20377;-32
2022/10/21 08:39:11;;;;;;;;;;;;;;;12.49;70.15;100345.19;5039359;28;19981;-32
2022/10/21 08:41:43;;;;;;;;;;;;;;;12.52;70.39;100342.50;5029716;28;19912;-32
2022/10/21 08:44:08;;;;;;;;;;;;;;;12.54;70.21;100348.63;5032104;28;19936;-32
2022/10/21 08:46:38;;;;;;;;;;;;;;;12.57;70.22;100348.53;5053545;28;20373;-31
2022/10/21 08:49:09;;;;;;;;;;;;;;;12.59;70.16;100346.75;5051881;28;19916;-31
2022/10/21 08:51:37;;;;;;;;;;;;;;;12.61;70.26;100342.31;5044979;28;19913;-31
2022/10/21 08:54:04;;;;;;;;;;;;;;;12.63;70.13;100332.53;5052993;28;19913;-31
2022/10/21 08:56:29;;;;;;;;;;;;;;;12.68;70.50;100337.72;5019674;28;19917;-32
2022/10/21 08:58:54;;;;;;;;;;;;;;;12.70;70.66;100334.13;5035838;28;20274;-32
2022/10/21 09:01:22;;;;;;;;;;;;;;;12.76;70.81;100348.13;5032723;28;19932;-31
2022/10/21 09:03:59;;;;;;;;;;;;;;;12.78;70.58;100327.81;5032523;28;19909;-31
2022/10/21 09:06:36;;;;;;;;;;;;;;;12.85;70.63;100336.44;5041554;28;19916;-31
2022/10/21 09:09:19;;;;;;;;;;;;;;;12.89;71.09;100331.06;5049412;28;19919;-30
2022/10/21 09:11:44;;;;;;;;;;;;;;;12.93;70.72;100330.06;5033682;28;19967;-31
2022/10/21 09:14:19;;;;;;;;;;;;;;;12.98;71.11;100335.25;5051669;28;20041;-31
2022/10/21 09:17:02;;;;;;;;;;;;;;;13.02;71.19;100339.56;5051903;28;19923;-31
2022/10/21 09:19:43;;;;;;;;;;;;;;;13.07;70.98;100336.78;5040188;28;20388;-30
2022/10/21 09:22:14;;;;;;;;;;;;;;;13.11;70.43;100327.00;5031422;28;19940;-31
2022/10/21 09:24:43;;;;;;;;;;;;;;;13.16;70.71;100327.75;5030116;28;19912;-31
2022/10/21 09:27:08;;;;;;;;;;;;;;;13.20;71.02;100332.94;5038091;28;20270;-31
2022/10/21 09:29:35;;;;;;;;;;;;;;;13.25;71.25;100324.88;5034037;28;19915;-31
2022/10/21 09:32:13;;;;;;;;;;;;;;;13.30;71.32;100322.97;5042433;28;20251;-31
2022/10/21 09:34:56;;;;;;;;;;;;;;;13.34;71.13;100326.44;5036394;28;20362;-31
2022/10/21 09:37:39;;;;;;;;;;;;;;;13.38;71.06;100325.44;5031969;28;20278;-32
2022/10/21 09:40:15;;;;;;;;;;;;;;;13.41;70.98;100320.03;5030812;28;19920;-32
2022/10/21 09:42:40;;;;;;;;;;;;;;;13.46;71.24;100323.44;5044434;28;19913;-32
2022/10/21 09:45:05;;;;;;;;;;;;;;;13.51;71.33;100335.72;5046957;28;20434;-30
2022/10/21 09:47:34;;;;;;;;;;;;;;;13.54;71.20;100330.34;5025258;28;19920;-30
2022/10/21 09:49:59;;;;;;;;;;;;;;;13.57;71.30;100336.44;5037406;28;19921;-31
2022/10/21 09:52:26;;;;;;;;;;;;;;;13.62;71.57;100333.66;5051781;28;20426;-32
2022/10/21 09:54:51;;;;;;;;;;;;;;;13.65;71.49;100327.41;5034133;28;20380;-31
2022/10/21 09:57:22;;;;;;;;;;;;;;;13.67;71.27;100331.75;5033925;28;19909;-31
2022/10/21 09:59:58;;;;;;;;;;;;;;;13.71;71.44;100332.53;5033183;28;19916;-31
2022/10/21 10:02:25;;;;;;;;;;;;;;;13.74;71.16;100329.78;5051027;28;19919;-31
2022/10/21 10:04:50;;;;;;;;;;;;;;;13.78;71.25;100327.94;5025380;28;19920;-31
2022/10/21 10:07:24;;;;;;;;;;;;;;;13.81;70.54;100334.00;5031694;28;19921;-31
2022/10/21 10:09:50;;;;;;;;;;;;;;;13.82;70.70;100330.47;5031947;28;19909;-31
2022/10/21 10:12:19;;;;;;;;;;;;;;;13.87;70.80;100335.59;5031189;28;19916;-31
2022/10/21 10:14:44;;;;;;;;;;;;;;;13.89;70.96;100335.56;5018492;28;19912;-32
2022/10/21 10:17:19;;;;;;;;;;;;;;;13.91;70.80;100331.09;5050079;28;19919;-31
2022/10/21 10:20:07;;;;;;;;;;;;;;;13.93;70.90;100338.09;5054901;28;20349;-31
2022/10/21 10:22:34;;;;;;;;;;;;;;;13.96;71.00;100326.53;5039049;28;19913;-31
2022/10/21 10:25:21;;;;;;;;;;;;;;;13.99;70.80;100321.16;5045786;28;20310;-31
2022/10/21 10:27:56;;;;;;;;;;;;;;;14.01;71.10;100321.97;5055364;28;19935;-30
2022/10/21 10:30:22;;;;;;;;;;;;;;;14.03;71.03;100321.91;5048190;28;20012;-30
2022/10/21 10:32:51;;;;;;;;;;;;;;;14.04;71.09;100324.53;5034007;28;19913;-30
2022/10/21 10:35:20;;;;;;;;;;;;;;;14.07;71.28;100320.94;5035421;28;19917;-31
2022/10/21 10:37:47;;;;;;;;;;;;;;;14.09;71.28;100316.44;5036980;28;19983;-32
2022/10/21 10:40:17;;;;;;;;;;;;;;;14.09;71.21;100305.84;5047374;28;19912;-31
2022/10/21 10:42:43;;;;;;;;;;;;;;;14.12;70.96;100311.06;5040691;28;19948;-31
2022/10/21 10:45:12;;;;;;;;;;;;;;;14.14;70.97;100306.56;5054649;28;19913;-31
2022/10/21 10:47:42;;;;;;;;;;;;;;;14.16;71.02;100317.13;5044144;28;20644;-31
2022/10/21 10:50:27;;;;;;;;;;;;;;;14.17;71.15;100314.44;5037051;28;19917;-31
2022/10/21 10:53:11;;;;;;;;;;;;;;;14.21;71.26;100307.25;5033406;28;20340;-31
2022/10/21 10:55:36;;;;;;;;;;;;;;;14.21;71.10;100305.47;5040972;28;20365;-31
2022/10/21 10:58:02;;;;;;;;;;;;;;;14.23;70.72;100298.34;5036805;28;19909;-32
2022/10/21 11:00:27;;;;;;;;;;;;;;;14.26;70.86;100296.50;5035850;28;19947;-31
2022/10/21 11:02:58;;;;;;;;;;;;;;;14.28;70.90;100299.97;5054343;28;19912;-30
2022/10/21 11:05:28;;;;;;;;;;;;;;;14.30;71.20;100299.00;5052639;28;19994;-31
2022/10/21 11:08:00;;;;;;;;;;;;;;;14.33;71.56;100295.38;5050336;28;20366;-31
2022/10/21 11:10:33;;;;;;;;;;;;;;;14.35;71.67;100291.81;5052742;28;19940;-31
2022/10/21 11:12:59;;;;;;;;;;;;;;;14.38;72.25;100280.22;5053933;28;20012;-31
2022/10/21 11:15:28;;;;;;;;;;;;;;;14.39;72.24;100279.28;5035793;28;19920;-31
2022/10/21 11:17:56;;;;;;;;;;;;;;;14.43;72.31;100280.03;5038603;28;19916;-31
2022/10/21 11:20:31;;;;;;;;;;;;;;;14.47;72.35;100269.31;5044435;28;20034;-31
2022/10/21 11:23:11;;;;;;;;;;;;;;;14.49;72.45;100278.09;5047396;28;19919;-31
2022/10/21 11:25:39;;;;;;;;;;;;;;;14.54;72.73;100269.13;5052933;28;20011;-31
2022/10/21 11:28:13;;;;;;;;;;;;;;;14.57;72.60;100269.03;5044016;28;20003;-31
2022/10/21 11:30:57;;;;;;;;;;;;;;;14.59;72.40;100256.56;5023918;28;20057;-31
2022/10/21 11:33:25;;;;;;;;;;;;;;;14.64;72.38;100259.91;5045227;28;19913;-31
2022/10/21 11:35:57;;;;;;;;;;;;;;;14.67;72.00;100254.50;5053202;28;19913;-31
2022/10/21 11:38:30;;;;;;;;;;;;;;;14.69;71.92;100268.63;5041746;28;19955;-31
2022/10/21 11:40:58;;;;;;;;;;;;;;;14.73;71.93;100264.94;5016670;28;20356;-31
2022/10/21 11:43:23;;;;;;;;;;;;;;;14.76;72.05;100256.00;5042089;28;20280;-31
2022/10/21 11:46:10;;;;;;;;;;;;;;;14.79;71.90;100261.25;5053110;28;19917;-31
2022/10/21 11:48:39;;;;;;;;;;;;;;;14.82;71.74;100254.97;5052841;28;19970;-31
2022/10/21 11:51:37;;;;;;;;;;;;;;;14.84;71.65;100261.09;5053276;28;19912;-31
2022/10/21 11:54:12;;;;;;;;;;;;;;;14.88;71.55;100252.09;5019700;28;20007;-31
2022/10/21 11:56:42;;;;;;;;;;;;;;;14.90;72.02;100250.25;5053975;28;19917;-31
2022/10/21 11:59:21;;;;;;;;;;;;;;;14.93;72.10;100249.28;5039999;28;19917;-31
2022/10/21 12:01:52;;;;;;;;;;;;;;;14.95;72.32;100253.63;5049008;28;19916;-31
2022/10/21 12:04:35;;;;;;;;;;;;;;;14.97;72.14;100254.44;5053763;28;19909;-31
2022/10/21 12:07:39;;;;;;;;;;;;;;;14.99;71.72;100255.25;5053494;28;19908;-31
2022/10/21 12:10:12;;;;;;;;;;;;;;;15.03;71.67;100266.63;4992113;28;20008;-31
2022/10/21 12:12:38;;;;;;;;;;;;;;;15.04;71.84;100252.44;5026583;28;19909;-31
2022/10/21 12:15:11;;;;;;;;;;;;;;;15.08;72.07;100263.81;5050720;28;20058;-31
2022/10/21 12:17:36;;;;;;;;;;;;;;;15.09;72.32;100260.25;5047881;28;19999;-31
2022/10/21 12:20:07;;;;;;;;;;;;;;;15.10;72.41;100256.66;5033380;28;20032;-31
2022/10/21 12:22:32;;;;;;;;;;;;;;;15.11;72.34;100261.91;5016303;28;19913;-31
2022/10/21 12:25:19;;;;;;;;;;;;;;;15.14;72.08;100253.00;5052755;28;19974;-31
2022/10/21 12:27:56;;;;;;;;;;;;;;;15.16;72.77;100259.13;5053108;28;19908;-31
2022/10/21 12:30:24;;;;;;;;;;;;;;;15.17;72.65;100262.66;5049468;28;19921;-31
2022/10/21 12:32:58;;;;;;;;;;;;;;;15.18;72.88;100262.59;5035228;28;19916;-31
2022/10/21 12:35:27;;;;;;;;;;;;;;;15.19;72.78;100266.97;5041215;28;21147;-31
2022/10/21 12:37:52;;;;;;;;;;;;;;;15.21;72.80;100274.91;5041340;28;19913;-31